Impacts METAR Board
IDs:

KORD - Chicago/O'Hare Intl, IL, US

Updated at: 1500 UTC 23 May 2018
Potential Impact None Slight Moderate High
Time 23/03Z 23/04Z 23/05Z 23/06Z 23/07Z 23/08Z 23/09Z 23/10Z 23/11Z 23/12Z 23/13Z 23/14Z 23/15Z
Temp57 56 54 54 53 53 53 52 53 56 59 65 68
Dewpt51 50 51 51 50 50 50 50 50 52 54 57 57
Altim30.09 30.09 30.09 30.10 30.10 30.10 30.12 30.14 30.16 30.18 30.19 30.20 30.20
VIS10 10 8 8 8 7 7 6 4 4 4 5 8
CIG-- -- -- -- -- -- -- 250 250 250 250 -- --
CoverFEWCLRCLRCLRFEWSCTSCTBKNBKNBKNBKNSCTSCT
FltCatVFRVFRVFRVFRVFRVFRVFRVFRMVFRMVFRMVFRMVFRVFR
WX--------------BRBRBRHZHZ--
WDir100001900000022024000
WSpd4 0 0 3 0 0 0 0 0 4 3 0 0
WGst-- -- -- -- -- -- -- -- -- -- -- -- --
Raw hourly METARs
KORD 230251Z 10004KT 10SM FEW030 FEW250 14/11 A3009 RMK AO2 SLP187 T01390106 53015
KORD 230351Z 00000KT 10SM CLR 13/10 A3009 RMK AO2 SLP189 T01330100
KORD 230451Z 00000KT 8SM CLR 12/11 A3009 RMK AO2 SLP190 T01220106
KORD 230551Z 19003KT 8SM CLR 12/11 A3010 RMK AO2 SLP192 T01220106 10183 20122 401940122 53005
KORD 230651Z 00000KT 8SM FEW250 12/10 A3010 RMK AO2 SLP192 T01170100
KORD 230751Z 00000KT 7SM SCT250 12/10 A3010 RMK AO2 SLP193 T01170100
KORD 230851Z 00000KT 7SM SCT250 12/10 A3012 RMK AO2 SLP199 T01170100 53006
KORD 230951Z 00000KT 6SM BR BKN250 11/10 A3014 RMK AO2 SLP204 T01110100
KORD 231051Z 00000KT 4SM BR BKN250 12/10 A3016 RMK AO2 SLP212 T01170100
KORD 231151Z 22004KT 4SM BR BKN250 13/11 A3018 RMK AO2 SLP220 T01330111 10133 20111 53020
KORD 231251Z 24003KT 4SM HZ BKN250 15/12 A3019 RMK AO2 SLP223 T01500122
KORD 231351Z 00000KT 5SM HZ SCT250 18/14 A3020 RMK AO2 SLP226 T01830139
KORD 231451Z 00000KT 8SM FEW200 SCT250 20/14 A3020 RMK AO2 SLP225 T02000139 50006



Page loaded:  15:06 UTC  |   08:06 AM Pacific  |   09:06 AM Mountain  |   10:06 AM Central  |   11:06 AM Eastern

 

ADVISORIES

FORECASTS

FORECASTS

OBSERVATIONS

USER TOOLS

ABOUT US